Time;durP1;ratioP1;P1;durP2;ratioP2;P2;SDS_P1;SDS_P2;PMS_P1;PMS_P2;Temp;Humidity;BMP_temperature;BMP_pressure;BME280_temperature;BME280_humidity;BME280_pressure;Samples;Min_cycle;Max_cycle;Signal;HPM_P1;HPM_P2
2023/01/13 00:01:14;;;;;;;21.07;3.33;;;10.00;99.90;;;;;;5082250;28;20024;-70
2023/01/13 00:03:39;;;;;;;14.18;3.03;;;10.10;99.90;;;;;;5077643;28;20737;-70
2023/01/13 00:06:07;;;;;;;20.10;4.30;;;10.10;99.90;;;;;;5083176;28;20024;-71
2023/01/13 00:08:32;;;;;;;20.80;3.50;;;9.90;99.90;;;;;;5075985;28;20033;-69
2023/01/13 00:10:58;;;;;;;14.17;2.50;;;9.70;99.90;;;;;;5076105;28;20025;-69
2023/01/13 00:13:27;;;;;;;19.23;3.97;;;;;;;;;;5089644;28;20020;-69
2023/01/13 00:16:01;;;;;;;18.70;2.80;;;9.50;99.90;;;;;;5088676;28;20039;-69
2023/01/13 00:18:27;;;;;;;14.60;2.95;;;9.40;99.90;;;;;;5088639;28;20031;-70
2023/01/13 00:21:01;;;;;;;30.20;4.47;;;9.40;99.90;;;;;;5089588;28;20085;-70
2023/01/13 00:23:28;;;;;;;18.17;3.57;;;9.40;99.90;;;;;;5089547;28;20020;-70
2023/01/13 00:25:59;;;;;;;20.50;4.13;;;9.20;99.90;;;;;;5088970;28;20024;-68
2023/01/13 00:28:24;;;;;;;19.87;2.93;;;9.20;99.90;;;;;;5089486;28;20032;-69
2023/01/13 00:30:50;;;;;;;14.63;2.80;;;9.10;99.90;;;;;;5089389;28;20416;-71
2023/01/13 00:33:16;;;;;;;18.17;4.10;;;;;;;;;;5088762;28;20028;-69
2023/01/13 00:35:41;;;;;;;23.13;2.93;;;9.00;99.90;;;;;;5087685;28;20477;-69
2023/01/13 00:38:07;;;;;;;14.27;2.80;;;;;;;;;;5089288;28;20109;-69
2023/01/13 00:40:33;;;;;;;22.73;3.47;;;8.80;99.90;;;;;;5088542;28;20039;-70
2023/01/13 00:45:42;;;;;;;15.57;3.28;;;8.80;99.90;;;;;;5088144;28;20122;-70
2023/01/13 00:48:08;;;;;;;21.10;2.63;;;8.80;99.90;;;;;;5087267;28;20082;-70
2023/01/13 00:50:34;;;;;;;23.80;3.13;;;;;;;;;;5084104;28;20538;-70
2023/01/13 00:53:00;;;;;;;25.27;4.83;;;;;;;;;;5085913;28;20465;-70
2023/01/13 00:55:26;;;;;;;17.17;3.23;;;8.60;99.90;;;;;;5084572;28;20020;-70
2023/01/13 00:57:51;;;;;;;14.70;3.40;;;8.60;99.90;;;;;;5086138;28;20024;-70
2023/01/13 01:00:18;;;;;;;24.57;3.33;;;8.60;99.90;;;;;;5084444;28;20076;-70
2023/01/13 01:02:43;;;;;;;24.30;4.87;;;8.70;99.90;;;;;;5085243;28;20038;-70
2023/01/13 01:05:09;;;;;;;20.23;4.33;;;8.50;99.90;;;;;;5084327;28;20027;-70
2023/01/13 01:07:35;;;;;;;14.40;2.83;;;8.50;99.90;;;;;;5085939;28;20464;-69
2023/01/13 01:10:01;;;;;;;16.73;3.00;;;;;;;;;;5079326;28;20120;-70
2023/01/13 01:12:27;;;;;;;23.37;4.57;;;;;;;;;;5081871;28;20024;-70
2023/01/13 01:14:53;;;;;;;18.97;3.23;;;;;;;;;;5092117;28;20032;-71
2023/01/13 01:17:18;;;;;;;22.30;3.13;;;8.50;99.90;;;;;;5091767;28;20115;-70
2023/01/13 01:19:44;;;;;;;25.47;4.17;;;8.70;99.90;;;;;;5079548;28;20028;-71
2023/01/13 01:22:09;;;;;;;18.90;4.30;;;8.60;99.90;;;;;;5091290;28;20035;-70
2023/01/13 01:24:35;;;;;;;19.07;4.03;;;8.60;99.90;;;;;;5092230;28;20060;-68
2023/01/13 01:27:00;;;;;;;26.13;3.37;;;8.90;99.90;;;;;;5092559;28;20469;-69
2023/01/13 01:29:27;;;;;;;24.70;3.33;;;;;;;;;;5090989;28;20023;-69
2023/01/13 01:31:53;;;;;;;24.60;3.47;;;;;;;;;;5092084;28;20499;-68
2023/01/13 01:34:18;;;;;;;23.80;4.43;;;8.60;99.90;;;;;;5091339;28;20502;-69
2023/01/13 01:36:44;;;;;;;26.07;4.63;;;8.70;99.90;;;;;;5092339;28;20104;-70
2023/01/13 01:39:09;;;;;;;25.70;5.27;;;8.60;99.90;;;;;;5090839;28;20476;-68
2023/01/13 01:41:36;;;;;;;22.67;4.20;;;8.50;99.90;;;;;;5091924;28;20501;-69
2023/01/13 01:44:27;;;;;;;30.17;4.70;;;8.40;99.90;;;;;;5091942;28;20030;-69
2023/01/13 01:46:55;;;;;;;24.40;4.20;;;8.30;99.90;;;;;;5090826;28;20081;-69
2023/01/13 01:49:31;;;;;;;26.47;4.27;;;7.90;99.90;;;;;;5091903;28;20031;-69
2023/01/13 01:52:21;;;;;;;24.53;4.67;;;8.40;99.90;;;;;;5091655;28;20373;-70
2023/01/13 01:54:57;;;;;;;29.60;5.43;;;8.30;99.90;;;;;;5090087;28;20119;-70
2023/01/13 01:57:46;;;;;;;25.00;4.60;;;7.90;99.90;;;;;;5091719;28;20024;-69
2023/01/13 02:00:12;;;;;;;29.70;4.77;;;8.20;99.90;;;;;;5089370;28;20050;-71
2023/01/13 02:02:39;;;;;;;30.30;5.17;;;8.10;99.90;;;;;;5079859;28;20027;-69
2023/01/13 02:05:05;;;;;;;32.80;4.83;;;8.10;99.90;;;;;;5085607;28;20017;-70
2023/01/13 02:07:33;;;;;;;23.53;3.87;;;8.10;99.90;;;;;;5071810;28;20082;-69
2023/01/13 02:10:04;;;;;;;31.50;5.53;;;8.10;99.90;;;;;;5072294;28;20023;-68
2023/01/13 02:12:30;;;;;;;28.63;5.43;;;8.20;99.90;;;;;;5070101;28;20024;-69
2023/01/13 02:15:02;;;;;;;22.37;5.03;;;8.20;99.90;;;;;;5089831;28;20028;-69
2023/01/13 02:17:43;;;;;;;23.27;5.03;;;8.10;99.90;;;;;;5090145;28;20488;-68
2023/01/13 02:20:24;;;;;;;33.93;5.50;;;8.10;99.90;;;;;;5080987;28;20077;-70
2023/01/13 02:26:36;;;;;;;26.80;6.30;;;8.30;99.90;;;;;;5002714;28;20041;-70
2023/01/13 02:32:52;;;;;;;37.23;7.97;;;8.10;99.90;;;;;;4990191;28;20533;-71
2023/01/13 02:35:21;;;;;;;27.10;3.80;;;8.00;99.90;;;;;;4990880;28;20070;-70
2023/01/13 02:37:48;;;;;;;23.20;4.60;;;8.00;99.90;;;;;;5021019;28;20491;-69
2023/01/13 02:40:21;;;;;;;26.50;4.60;;;8.30;99.90;;;;;;5020956;28;20060;-69
2023/01/13 02:46:02;;;;;;;27.73;3.50;;;7.90;99.90;;;;;;5011544;28;20111;-70
2023/01/13 02:48:31;;;;;;;27.43;4.30;;;8.00;99.90;;;;;;5013615;28;20057;-69
2023/01/13 02:51:04;;;;;;;28.20;4.20;;;7.60;99.90;;;;;;5017861;28;20028;-69
2023/01/13 02:53:44;;;;;;;29.23;4.90;;;7.90;99.90;;;;;;5006934;28;20029;-69
2023/01/13 02:56:12;;;;;;;29.43;5.63;;;7.70;99.90;;;;;;5007892;28;20530;-69
2023/01/13 02:58:39;;;;;;;21.23;4.33;;;7.80;99.90;;;;;;4995882;28;20032;-69
2023/01/13 03:01:05;;;;;;;26.40;3.47;;;8.00;99.90;;;;;;5057258;28;20041;-70
2023/01/13 03:03:31;;;;;;;22.40;3.67;;;;;;;;;;5089957;28;20103;-70
2023/01/13 03:06:35;;;;;;;27.30;3.77;;;8.00;99.90;;;;;;5086173;28;20031;-70
2023/01/13 03:09:18;;;;;;;20.38;3.85;;;8.00;99.90;;;;;;5080342;28;20055;-70
2023/01/13 03:11:55;;;;;;;26.40;4.63;;;8.10;99.90;;;;;;5068630;28;20056;-70
2023/01/13 03:14:56;;;;;;;34.33;4.37;;;8.10;99.90;;;;;;5078047;28;20031;-70
2023/01/13 03:17:29;;;;;;;29.10;4.50;;;8.20;99.90;;;;;;5073674;28;20025;-70
2023/01/13 03:20:26;;;;;;;27.00;4.57;;;8.20;99.90;;;;;;5083097;28;20469;-68
2023/01/13 03:23:09;;;;;;;24.47;4.20;;;8.50;99.90;;;;;;5072258;28;20024;-68
2023/01/13 03:26:00;;;;;;;18.55;3.03;;;8.30;99.90;;;;;;5072251;28;20183;-69
2023/01/13 03:28:31;;;;;;;23.60;3.47;;;8.50;99.90;;;;;;5070935;28;20070;-69
2023/01/13 03:31:02;;;;;;;24.60;3.90;;;8.60;99.90;;;;;;5071866;28;20378;-69
2023/01/13 03:33:34;;;;;;;24.23;3.63;;;8.30;99.90;;;;;;5070949;28;20315;-69
2023/01/13 03:36:05;;;;;;;21.30;4.00;;;8.50;99.90;;;;;;5071163;28;20020;-69
2023/01/13 03:38:35;;;;;;;23.37;3.83;;;8.40;99.90;;;;;;5072264;28;20050;-70
2023/01/13 03:41:07;;;;;;;28.23;3.83;;;8.50;99.90;;;;;;5070515;28;20363;-69
2023/01/13 03:46:45;;;;;;;27.57;4.17;;;8.30;99.90;;;;;;5072376;28;20035;-69
2023/01/13 03:49:18;;;;;;;25.13;4.23;;;8.40;99.90;;;;;;5070916;28;20051;-69
2023/01/13 03:51:49;;;;;;;22.53;4.77;;;8.60;99.90;;;;;;5072477;28;20473;-69
2023/01/13 03:54:18;;;;;;;25.80;4.30;;;8.50;99.90;;;;;;5070970;28;20039;-68
2023/01/13 03:56:51;;;;;;;31.93;5.13;;;8.60;99.90;;;;;;5071282;28;20053;-69
2023/01/13 03:59:21;;;;;;;26.73;4.50;;;8.50;99.90;;;;;;5070601;28;20032;-69
2023/01/13 04:02:25;;;;;;;26.10;4.77;;;8.50;99.90;;;;;;5070503;28;20055;-68
2023/01/13 04:04:58;;;;;;;18.17;3.80;;;8.60;99.90;;;;;;5071833;28;20036;-69
2023/01/13 04:07:38;;;;;;;27.93;5.57;;;8.20;99.90;;;;;;5076804;28;20085;-69
2023/01/13 04:10:08;;;;;;;17.27;3.07;;;8.70;99.90;;;;;;5074926;28;20086;-69
2023/01/13 04:12:59;;;;;;;19.87;3.77;;;8.10;99.90;;;;;;5068367;28;20503;-69
2023/01/13 04:15:28;;;;;;;21.00;3.17;;;8.10;99.90;;;;;;5068320;28;20469;-70
2023/01/13 04:18:00;;;;;;;28.27;5.57;;;7.70;99.90;;;;;;5069764;28;20024;-71
2023/01/13 04:20:26;;;;;;;22.13;3.37;;;7.90;99.90;;;;;;5069767;28;20037;-70
2023/01/13 04:22:52;;;;;;;21.37;3.17;;;;;;;;;;5070111;28;20031;-69
2023/01/13 04:25:18;;;;;;;23.10;3.27;;;;;;;;;;5069060;28;20492;-70
2023/01/13 04:27:44;;;;;;;9.73;2.23;;;;;;;;;;5069774;28;20024;-68
2023/01/13 04:30:10;;;;;;;20.93;2.87;;;7.80;99.90;;;;;;5069525;28;20025;-69
2023/01/13 04:32:36;;;;;;;23.50;2.57;;;;;;;;;;5088332;28;20468;-69
2023/01/13 04:35:02;;;;;;;18.27;2.47;;;;;;;;;;5088289;28;20020;-69
2023/01/13 04:37:28;;;;;;;21.20;4.07;;;7.80;99.90;;;;;;5084166;28;20071;-69
2023/01/13 04:39:53;;;;;;;14.73;2.33;;;;;;;;;;5081737;28;20096;-68
2023/01/13 04:42:19;;;;;;;13.17;1.97;;;;;;;;;;5088470;28;20055;-69
2023/01/13 04:44:45;;;;;;;14.20;2.87;;;7.90;99.90;;;;;;5088999;28;20062;-69
2023/01/13 04:47:11;;;;;;;12.60;1.77;;;;;;;;;;5088307;28;20024;-69
2023/01/13 04:49:36;;;;;;;13.10;1.93;;;8.00;99.90;;;;;;5073488;28;20036;-69
2023/01/13 04:52:02;;;;;;;10.00;1.97;;;;;;;;;;5073883;28;20036;-69
2023/01/13 04:54:28;;;;;;;10.20;1.77;;;7.90;99.90;;;;;;5073013;28;20021;-69
2023/01/13 04:56:54;;;;;;;6.07;1.13;;;7.90;99.90;;;;;;5073705;28;20024;-69
2023/01/13 04:59:19;;;;;;;14.77;1.00;;;7.90;99.90;;;;;;5072818;28;20039;-69
2023/01/13 05:01:45;;;;;;;11.80;1.73;;;7.80;99.90;;;;;;5073769;28;20036;-70
2023/01/13 05:04:14;;;;;;;8.60;1.53;;;;;;;;;;5072830;28;20028;-69
2023/01/13 05:06:39;;;;;;;12.87;1.50;;;7.90;99.90;;;;;;5079099;28;20476;-69
2023/01/13 05:09:05;;;;;;;6.83;0.80;;;;;;;;;;5092538;28;20031;-69
2023/01/13 05:17:00;;;;;;;18.17;2.57;;;8.00;99.90;;;;;;5092324;28;20557;-69
2023/01/13 05:19:34;;;;;;;10.00;1.00;;;7.90;99.90;;;;;;5091213;28;20020;-69
2023/01/13 05:27:34;;;;;;;11.90;1.65;;;7.80;99.90;;;;;;5032267;28;20056;-69
2023/01/13 05:30:00;;;;;;;15.00;1.30;;;;;;;;;;5039480;28;20112;-68
2023/01/13 05:32:29;;;;;;;20.33;2.53;;;8.10;99.90;;;;;;5032675;28;20108;-68
2023/01/13 05:34:55;;;;;;;9.13;2.20;;;8.00;99.90;;;;;;5037765;28;20038;-68
2023/01/13 05:37:21;;;;;;;12.53;2.00;;;7.50;99.90;;;;;;5044746;28;20047;-68
2023/01/13 05:45:15;;;;;;;5.47;1.33;;;;;;;;;;5042279;28;19947;-70
2023/01/13 05:47:40;;;;;;;12.23;2.17;;;8.10;99.90;;;;;;5037223;28;20124;-70
2023/01/13 05:50:07;;;;;;;10.97;1.53;;;8.20;99.90;;;;;;5041950;28;20109;-69
2023/01/13 05:52:33;;;;;;;11.40;2.47;;;8.20;99.90;;;;;;5038679;28;20044;-69
2023/01/13 05:54:58;;;;;;;10.00;2.30;;;8.20;99.90;;;;;;5041187;28;20490;-68
2023/01/13 05:57:24;;;;;;;6.23;1.50;;;8.30;99.90;;;;;;5037004;28;20025;-69
2023/01/13 05:59:50;;;;;;;12.40;1.90;;;7.80;99.90;;;;;;5044110;28;20048;-69
2023/01/13 06:02:15;;;;;;;12.23;2.30;;;8.00;99.90;;;;;;5081187;28;20503;-70
2023/01/13 06:04:41;;;;;;;8.33;1.93;;;8.00;99.90;;;;;;5081923;28;20086;-69
2023/01/13 06:07:06;;;;;;;12.83;2.20;;;7.70;99.90;;;;;;5091170;28;20032;-68
2023/01/13 06:09:32;;;;;;;11.73;1.80;;;;;;;;;;5088856;28;20028;-69
2023/01/13 06:11:58;;;;;;;11.23;2.23;;;7.70;99.90;;;;;;5080925;28;20032;-69
2023/01/13 06:14:23;;;;;;;11.63;2.90;;;7.80;99.90;;;;;;5091455;28;20024;-69
2023/01/13 06:16:49;;;;;;;14.63;2.70;;;;;;;;;;5092107;28;20028;-68
2023/01/13 06:19:15;;;;;;;8.80;2.20;;;7.80;99.90;;;;;;5091242;28;20027;-68
2023/01/13 06:21:41;;;;;;;14.70;2.60;;;7.80;99.90;;;;;;5091479;28;20152;-68
2023/01/13 06:24:07;;;;;;;18.97;3.17;;;7.70;99.90;;;;;;5076099;28;20021;-68
2023/01/13 06:26:37;;;;;;;15.43;2.93;;;7.60;99.90;;;;;;5070596;28;20062;-68
2023/01/13 06:29:03;;;;;;;16.07;2.73;;;;;;;;;;5085102;28;20032;-68
2023/01/13 06:31:30;;;;;;;14.53;2.27;;;7.60;99.90;;;;;;5071864;28;20152;-68
2023/01/13 06:34:05;;;;;;;11.20;2.00;;;7.50;99.90;;;;;;5084856;28;20108;-68
2023/01/13 06:36:40;;;;;;;11.00;2.80;;;7.50;99.90;;;;;;5069643;28;20024;-68
2023/01/13 06:39:07;;;;;;;16.83;1.93;;;7.90;99.90;;;;;;5071320;28;20036;-68
2023/01/13 06:44:23;;;;;;;20.13;2.70;;;7.50;99.90;;;;;;5018463;28;20037;-68
2023/01/13 06:46:49;;;;;;;13.60;2.43;;;7.50;99.90;;;;;;5029278;28;20091;-68
2023/01/13 06:49:15;;;;;;;19.33;2.57;;;;;;;;;;5028345;28;20068;-68
2023/01/13 06:51:41;;;;;;;19.23;2.50;;;7.30;99.90;;;;;;5028872;28;21345;-69
2023/01/13 06:54:07;;;;;;;12.23;3.00;;;7.40;99.90;;;;;;5038078;28;20466;-68
2023/01/13 06:56:33;;;;;;;14.13;3.20;;;7.60;99.90;;;;;;5032332;28;20637;-68
2023/01/13 06:58:58;;;;;;;14.57;2.50;;;7.70;99.90;;;;;;5038189;28;20029;-68
2023/01/13 07:01:24;;;;;;;15.07;2.67;;;7.80;99.90;;;;;;5045648;28;20076;-68
2023/01/13 07:03:50;;;;;;;18.80;2.90;;;7.70;99.90;;;;;;5047924;28;20502;-68
2023/01/13 07:06:15;;;;;;;16.90;3.23;;;7.80;99.90;;;;;;5044040;28;20112;-68
2023/01/13 07:08:41;;;;;;;20.90;3.00;;;;;;;;;;5037897;28;20071;-69
2023/01/13 07:11:08;;;;;;;10.03;2.23;;;;;;;;;;5031282;28;20025;-68
2023/01/13 07:16:18;;;;;;;13.40;2.60;;;8.00;99.90;;;;;;5045693;28;20584;-68
2023/01/13 07:18:44;;;;;;;15.53;2.90;;;;;;;;;;5047694;28;20033;-68
2023/01/13 07:21:12;;;;;;;15.50;2.63;;;8.00;99.90;;;;;;5069874;28;20269;-69
2023/01/13 07:23:39;;;;;;;15.10;3.07;;;7.90;99.90;;;;;;5090950;28;20023;-68
2023/01/13 07:26:07;;;;;;;13.83;3.13;;;7.90;99.90;;;;;;5089953;28;20024;-69
2023/01/13 07:28:33;;;;;;;14.90;2.43;;;8.30;99.90;;;;;;5090722;28;20051;-69
2023/01/13 07:30:59;;;;;;;30.97;3.60;;;8.00;99.90;;;;;;5088879;28;20055;-68
2023/01/13 07:33:25;;;;;;;19.53;2.87;;;7.90;99.90;;;;;;5089851;28;20074;-69
2023/01/13 07:36:00;;;;;;;14.80;2.37;;;7.70;99.90;;;;;;5088755;28;20024;-68
2023/01/13 07:38:26;;;;;;;21.77;3.13;;;8.10;99.90;;;;;;5089280;28;20376;-67
2023/01/13 07:40:52;;;;;;;14.03;2.83;;;8.00;99.90;;;;;;5090325;28;20028;-68
2023/01/13 07:43:33;;;;;;;16.73;2.87;;;;;;;;;;5089318;28;20072;-68
2023/01/13 07:46:04;;;;;;;15.70;2.43;;;7.90;99.90;;;;;;5079778;28;20069;-68
2023/01/13 07:48:33;;;;;;;27.87;3.13;;;8.00;99.90;;;;;;5087395;28;20493;-67
2023/01/13 07:51:07;;;;;;;17.60;2.80;;;8.00;99.90;;;;;;5089815;28;20385;-68
2023/01/13 07:53:33;;;;;;;15.85;3.05;;;8.00;99.90;;;;;;5088771;28;20500;-67
2023/01/13 07:56:00;;;;;;;18.27;3.40;;;8.00;99.90;;;;;;5088203;28;20074;-67
2023/01/13 07:58:27;;;;;;;19.13;3.50;;;8.10;99.90;;;;;;5087752;28;20076;-68
2023/01/13 08:00:53;;;;;;;10.00;2.50;;;;;;;;;;5087588;28;20047;-68
2023/01/13 08:03:18;;;;;;;19.90;3.03;;;8.00;99.90;;;;;;5075093;28;20024;-68
2023/01/13 08:05:44;;;;;;;21.70;3.43;;;8.20;99.90;;;;;;5089118;28;20024;-68
2023/01/13 08:08:10;;;;;;;12.87;2.87;;;;;;;;;;5087459;28;20107;-68
2023/01/13 08:10:36;;;;;;;23.73;4.47;;;8.30;99.90;;;;;;5078308;28;20035;-68
2023/01/13 08:13:17;;;;;;;19.70;3.53;;;6.80;99.90;;;;;;5087308;28;20012;-68
2023/01/13 08:15:51;;;;;;;14.50;2.97;;;8.10;99.90;;;;;;5090370;28;20392;-68
2023/01/13 08:18:21;;;;;;;18.58;3.22;;;8.20;99.90;;;;;;5076809;28;20125;-68
2023/01/13 08:20:53;;;;;;;16.37;2.43;;;8.30;99.90;;;;;;5089613;28;20281;-69
2023/01/13 08:23:21;;;;;;;20.83;2.97;;;8.30;99.90;;;;;;5093462;28;20141;-69
2023/01/13 08:25:47;;;;;;;17.97;4.30;;;8.30;99.90;;;;;;5090926;28;20057;-69
2023/01/13 08:28:13;;;;;;;18.27;2.87;;;;;;;;;;5073568;28;20032;-68
2023/01/13 08:30:39;;;;;;;19.27;2.83;;;;;;;;;;5087257;28;20081;-67
2023/01/13 08:33:09;;;;;;;18.87;3.23;;;8.40;99.90;;;;;;5081839;28;20020;-70
2023/01/13 08:35:36;;;;;;;16.80;4.07;;;8.40;99.90;;;;;;5092923;28;20107;-70
2023/01/13 08:38:03;;;;;;;20.63;3.77;;;8.40;99.90;;;;;;5093524;28;20073;-71
2023/01/13 08:40:28;;;;;;;21.40;4.30;;;8.30;99.90;;;;;;5092416;28;20038;-70
2023/01/13 08:42:57;;;;;;;14.27;3.10;;;8.30;99.90;;;;;;5092286;28;20040;-69
2023/01/13 08:45:23;;;;;;;24.47;4.50;;;8.40;99.90;;;;;;5092343;28;20484;-70
2023/01/13 08:47:49;;;;;;;14.70;2.90;;;;;;;;;;5090059;28;20039;-71
2023/01/13 08:50:15;;;;;;;14.07;3.10;;;;;;;;;;5085581;28;20081;-71
2023/01/13 08:52:41;;;;;;;16.23;3.43;;;;;;;;;;5089657;28;20074;-71
2023/01/13 08:55:07;;;;;;;23.03;3.93;;;8.40;99.90;;;;;;5087620;28;20020;-71
2023/01/13 08:57:33;;;;;;;13.50;3.03;;;8.40;99.90;;;;;;5089282;28;20498;-71
2023/01/13 08:59:59;;;;;;;18.60;2.97;;;8.50;99.90;;;;;;5088861;28;20051;-71
2023/01/13 09:02:25;;;;;;;18.17;2.73;;;8.50;99.90;;;;;;5090107;28;20492;-70
2023/01/13 09:04:51;;;;;;;18.30;3.10;;;8.40;99.90;;;;;;5087656;28;20024;-70
2023/01/13 09:07:17;;;;;;;18.17;2.90;;;;;;;;;;5089717;28;20101;-70
2023/01/13 09:09:43;;;;;;;25.37;3.87;;;8.40;99.90;;;;;;5085631;28;20036;-70
2023/01/13 09:15:00;;;;;;;15.80;3.63;;;8.30;99.90;;;;;;5087824;28;20032;-71
2023/01/13 09:17:26;;;;;;;18.40;3.37;;;8.40;99.90;;;;;;5086689;28;20024;-70
2023/01/13 09:19:52;;;;;;;14.90;3.03;;;8.70;99.90;;;;;;5083375;28;20491;-71
2023/01/13 09:22:18;;;;;;;22.30;4.10;;;8.50;99.90;;;;;;5089738;28;20554;-71
2023/01/13 09:24:44;;;;;;;26.53;4.63;;;8.60;99.90;;;;;;5082725;28;20017;-71
2023/01/13 09:27:12;;;;;;;24.50;4.23;;;8.70;99.90;;;;;;5084450;28;20131;-70
2023/01/13 09:29:38;;;;;;;25.13;5.37;;;8.10;99.90;;;;;;5081973;28;20335;-71
2023/01/13 09:32:04;;;;;;;22.60;2.87;;;8.80;99.90;;;;;;5085246;28;20507;-70
2023/01/13 09:37:14;;;;;;;25.07;4.70;;;8.60;99.90;;;;;;5085863;28;20040;-70
2023/01/13 09:39:40;;;;;;;21.63;4.10;;;8.80;99.90;;;;;;5087025;28;20473;-71
2023/01/13 09:45:31;;;;;;;20.77;4.17;;;8.70;99.90;;;;;;5086112;28;20039;-69
2023/01/13 09:48:19;;;;;;;20.33;4.40;;;8.90;99.90;;;;;;5091606;28;20024;-71
2023/01/13 09:51:05;;;;;;;19.50;3.60;;;8.80;99.90;;;;;;5082045;28;20024;-70
2023/01/13 09:53:35;;;;;;;23.40;4.13;;;8.60;99.90;;;;;;5083115;28;20027;-70
2023/01/13 09:56:01;;;;;;;27.70;3.80;;;;;;;;;;5085837;28;20025;-70
2023/01/13 09:58:27;;;;;;;25.30;3.80;;;8.50;99.90;;;;;;5081575;28;20035;-70
2023/01/13 10:01:02;;;;;;;22.00;4.73;;;8.40;99.90;;;;;;5092182;28;20036;-70
2023/01/13 10:03:30;;;;;;;21.80;4.03;;;8.40;99.90;;;;;;5082925;28;20028;-71
2023/01/13 10:06:18;;;;;;;22.40;3.70;;;8.30;99.90;;;;;;5087845;28;20016;-71
2023/01/13 10:08:45;;;;;;;21.10;3.77;;;8.20;99.90;;;;;;5086429;28;20049;-71
2023/01/13 10:14:21;;;;;;;22.73;3.63;;;8.10;99.90;;;;;;5075622;28;20059;-71
2023/01/13 10:16:59;;;;;;;18.43;4.20;;;8.10;99.90;;;;;;5086015;28;20449;-72
2023/01/13 10:19:47;;;;;;;27.83;4.03;;;8.00;99.90;;;;;;5085327;28;20066;-72
2023/01/13 10:22:22;;;;;;;23.13;4.57;;;8.00;99.90;;;;;;5074906;28;20396;-71
2023/01/13 10:25:19;;;;;;;17.40;3.33;;;8.10;99.90;;;;;;5073571;28;20115;-73
2023/01/13 10:27:50;;;;;;;21.47;3.90;;;8.10;99.90;;;;;;5072799;28;20024;-72
2023/01/13 10:30:20;;;;;;;27.10;4.37;;;8.10;99.90;;;;;;5073968;28;20028;-72
2023/01/13 10:32:56;;;;;;;25.10;4.40;;;8.20;99.90;;;;;;5073543;28;20059;-72
2023/01/13 10:35:54;;;;;;;17.03;3.67;;;8.20;99.90;;;;;;5074696;28;20488;-72
2023/01/13 10:38:36;;;;;;;21.97;3.87;;;8.20;99.90;;;;;;5073829;28;20024;-72
2023/01/13 10:41:18;;;;;;;17.93;4.50;;;8.20;99.90;;;;;;5097124;28;20028;-72
2023/01/13 10:44:24;;;;;;;13.90;3.13;;;8.50;99.90;;;;;;5094260;28;20034;-70
2023/01/13 10:46:53;;;;;;;23.43;4.27;;;8.40;99.90;;;;;;5084224;28;20036;-72
2023/01/13 10:49:38;;;;;;;16.13;3.03;;;8.90;99.90;;;;;;5090608;28;20370;-72
2023/01/13 10:52:25;;;;;;;20.47;3.43;;;8.40;99.90;;;;;;5090588;28;20493;-72
2023/01/13 10:54:53;;;;;;;19.37;4.00;;;8.40;99.90;;;;;;5091065;28;20466;-72
2023/01/13 10:57:24;;;;;;;23.00;3.70;;;8.40;99.90;;;;;;5082063;28;20028;-71
2023/01/13 10:59:50;;;;;;;24.23;3.93;;;;;;;;;;5072678;28;20455;-69
2023/01/13 11:02:15;;;;;;;23.73;3.07;;;8.60;99.90;;;;;;5086426;28;20073;-70
2023/01/13 11:04:53;;;;;;;27.70;4.60;;;8.60;99.90;;;;;;5081720;28;20415;-71
2023/01/13 11:07:48;;;;;;;17.70;4.00;;;8.70;99.90;;;;;;5085673;28;20040;-71
2023/01/13 11:10:19;;;;;;;21.23;3.77;;;8.70;99.90;;;;;;5079527;28;20032;-71
2023/01/13 11:12:58;;;;;;;17.57;2.90;;;8.30;99.90;;;;;;5075576;28;20027;-71
2023/01/13 11:15:38;;;;;;;17.03;3.47;;;8.70;99.90;;;;;;5070741;28;20020;-71
2023/01/13 11:18:13;;;;;;;22.60;3.30;;;8.60;99.90;;;;;;5070734;28;20012;-71
2023/01/13 11:20:42;;;;;;;27.73;6.07;;;8.60;99.90;;;;;;5083972;28;20027;-71
2023/01/13 11:23:27;;;;;;;28.37;4.77;;;8.60;99.90;;;;;;5076112;28;20504;-71
2023/01/13 11:25:59;;;;;;;19.43;4.20;;;8.30;99.90;;;;;;5089492;28;20099;-71
2023/01/13 11:28:51;;;;;;;21.27;4.43;;;8.30;99.90;;;;;;5088826;28;20028;-71
2023/01/13 11:31:32;;;;;;;31.73;4.90;;;8.70;99.90;;;;;;5077189;28;20019;-71
2023/01/13 11:34:25;;;;;;;17.50;3.17;;;8.90;99.90;;;;;;5090370;28;20021;-71
2023/01/13 11:36:55;;;;;;;24.27;3.87;;;8.90;99.90;;;;;;5078245;28;20031;-71
2023/01/13 11:39:40;;;;;;;26.93;3.53;;;9.10;99.90;;;;;;5071735;28;20373;-71
2023/01/13 11:42:20;;;;;;;21.17;3.60;;;8.90;99.90;;;;;;5080970;28;20562;-71
2023/01/13 11:44:49;;;;;;;24.00;3.67;;;9.00;99.90;;;;;;5085588;28;20036;-71
2023/01/13 11:47:18;;;;;;;19.17;4.10;;;9.00;99.90;;;;;;5084958;28;20043;-71
2023/01/13 11:49:47;;;;;;;14.83;2.23;;;9.00;99.90;;;;;;5082929;28;20317;-71
2023/01/13 11:52:13;;;;;;;19.37;2.67;;;;;;;;;;5077381;28;20028;-71
2023/01/13 11:54:59;;;;;;;26.53;4.20;;;9.00;99.90;;;;;;5075035;28;20371;-70
2023/01/13 11:57:59;;;;;;;19.97;2.93;;;9.00;99.90;;;;;;5083957;28;20042;-71
2023/01/13 12:01:02;;;;;;;18.83;3.17;;;8.80;99.90;;;;;;5082814;28;20047;-71
2023/01/13 12:03:48;;;;;;;24.83;4.87;;;8.90;99.90;;;;;;5048593;28;20053;-71
2023/01/13 12:06:25;;;;;;;24.30;3.80;;;8.90;99.90;;;;;;5083695;28;20019;-71
2023/01/13 12:08:59;;;;;;;19.53;2.87;;;8.80;99.90;;;;;;5088161;28;20078;-71
2023/01/13 12:11:32;;;;;;;17.00;3.28;;;8.70;99.90;;;;;;5078744;28;20016;-71
2023/01/13 12:13:58;;;;;;;19.65;3.75;;;;;;;;;;5088752;28;20028;-70
2023/01/13 12:16:27;;;;;;;20.07;4.10;;;8.80;99.90;;;;;;5085264;28;20044;-71
2023/01/13 12:19:13;;;;;;;19.53;3.60;;;8.90;99.90;;;;;;5089797;28;20040;-71
2023/01/13 12:21:45;;;;;;;19.50;3.20;;;8.90;99.90;;;;;;5078837;28;20024;-71
2023/01/13 12:24:31;;;;;;;19.73;3.37;;;9.00;99.90;;;;;;5084053;28;20016;-69
2023/01/13 12:27:04;;;;;;;20.83;4.03;;;9.00;99.90;;;;;;5090056;28;20021;-70
2023/01/13 12:29:37;;;;;;;25.10;4.10;;;8.90;99.90;;;;;;5085357;28;20034;-70
2023/01/13 12:32:09;;;;;;;18.95;3.25;;;9.00;99.90;;;;;;5088482;28;20036;-70
2023/01/13 12:34:46;;;;;;;15.53;2.47;;;8.80;99.90;;;;;;5086937;28;21030;-70
2023/01/13 12:37:57;;;;;;;24.33;4.33;;;9.20;99.90;;;;;;5075100;28;20030;-70
2023/01/13 12:40:46;;;;;;;22.07;3.60;;;9.30;99.90;;;;;;5062818;28;20311;-70
2023/01/13 12:46:19;;;;;;;23.40;3.25;;;9.00;99.90;;;;;;5099243;28;20035;-71
2023/01/13 12:48:55;;;;;;;14.40;3.13;;;8.40;99.90;;;;;;5097446;28;20051;-71
2023/01/13 12:51:28;;;;;;;17.73;3.50;;;8.80;99.90;;;;;;5093961;28;20011;-72
2023/01/13 12:53:55;;;;;;;20.93;5.73;;;8.50;99.90;;;;;;5096996;28;20039;-72
2023/01/13 12:56:38;;;;;;;21.83;3.23;;;8.50;99.90;;;;;;5107173;28;20012;-72
2023/01/13 12:59:15;;;;;;;20.33;2.93;;;8.40;99.90;;;;;;5097398;28;20027;-72
2023/01/13 13:01:42;;;;;;;21.07;3.83;;;8.50;99.90;;;;;;5096800;28;20023;-71
2023/01/13 13:04:17;;;;;;;21.50;3.60;;;8.60;99.90;;;;;;5102134;28;20028;-71
2023/01/13 13:07:04;;;;;;;21.40;3.23;;;8.70;99.90;;;;;;5100305;28;20059;-72
2023/01/13 13:09:41;;;;;;;19.97;3.10;;;8.80;99.90;;;;;;5107861;28;20119;-71
2023/01/13 13:15:22;;;;;;;20.80;2.83;;;9.00;99.90;;;;;;5095958;28;20096;-69
2023/01/13 13:18:15;;;;;;;18.53;3.40;;;9.00;99.90;;;;;;5105733;28;20032;-72
2023/01/13 13:21:09;;;;;;;14.37;2.53;;;8.80;99.90;;;;;;5097528;28;20095;-71
2023/01/13 13:23:54;;;;;;;18.15;3.00;;;8.90;99.90;;;;;;5097392;28;20781;-71
2023/01/13 13:26:31;;;;;;;18.40;3.10;;;8.90;99.90;;;;;;5103619;28;20016;-72
2023/01/13 13:29:17;;;;;;;18.13;3.33;;;8.90;99.90;;;;;;5079680;28;20047;-71
2023/01/13 13:32:07;;;;;;;22.13;2.87;;;8.90;99.90;;;;;;5081857;28;20029;-72
2023/01/13 13:35:06;;;;;;;18.93;2.97;;;8.90;99.90;;;;;;5088783;28;20096;-71
2023/01/13 13:49:07;;;;;;;22.77;3.67;;;9.50;99.90;;;;;;5110109;28;20147;-72
2023/01/13 13:51:39;;;;;;;20.90;2.40;;;9.10;99.90;;;;;;5107558;28;20030;-71
2023/01/13 13:54:07;;;;;;;16.67;3.93;;;9.30;99.90;;;;;;5109481;28;20409;-71
2023/01/13 13:56:39;;;;;;;16.27;2.13;;;9.20;99.90;;;;;;5101063;28;20111;-71
2023/01/13 13:59:07;;;;;;;13.90;2.63;;;9.10;99.90;;;;;;5106177;28;20106;-71
2023/01/13 14:01:36;;;;;;;18.60;2.43;;;9.30;99.90;;;;;;5104808;28;20043;-71
2023/01/13 14:04:16;;;;;;;15.13;2.27;;;9.20;99.90;;;;;;5108322;28;20016;-71
2023/01/13 14:06:53;;;;;;;14.83;2.73;;;9.30;99.90;;;;;;5103422;28;20074;-71
2023/01/13 14:09:20;;;;;;;14.47;2.47;;;9.20;99.90;;;;;;5089022;28;20049;-71
2023/01/13 14:12:01;;;;;;;15.00;2.97;;;9.10;99.90;;;;;;5087994;28;20052;-71
2023/01/13 14:14:27;;;;;;;18.40;2.87;;;9.20;99.90;;;;;;5101957;28;20020;-69
2023/01/13 14:16:54;;;;;;;13.10;2.50;;;9.30;99.90;;;;;;5109513;28;20015;-71
2023/01/13 14:19:44;;;;;;;12.90;1.87;;;9.20;99.90;;;;;;5096396;28;20030;-71
2023/01/13 14:22:15;;;;;;;17.87;2.77;;;9.20;99.90;;;;;;5102734;28;20540;-71
2023/01/13 14:24:54;;;;;;;14.97;2.23;;;9.40;99.90;;;;;;5101408;28;20022;-71
2023/01/13 14:27:22;;;;;;;13.93;2.90;;;9.30;99.90;;;;;;5089836;28;20012;-70
2023/01/13 14:29:51;;;;;;;13.63;2.60;;;9.10;99.90;;;;;;5090214;28;20031;-69
2023/01/13 14:32:18;;;;;;;16.40;2.63;;;9.10;99.90;;;;;;5090438;28;20020;-71